createdAt,value
2022-09-30T00:00:36.977Z,100865.69
2022-09-30T00:03:07.340Z,100847.81
2022-09-30T00:05:37.459Z,100851.88
2022-09-30T00:08:08.254Z,100865.31
2022-09-30T00:10:38.159Z,100853.91
2022-09-30T00:13:10.442Z,100842.53
2022-09-30T00:15:40.769Z,100844.56
2022-09-30T00:18:11.812Z,100860.03
2022-09-30T00:20:41.774Z,100854.34
2022-09-30T00:23:12.288Z,100836.84
2022-09-30T00:25:43.318Z,100838.91
2022-09-30T00:28:15.754Z,100839.72
2022-09-30T00:30:46.992Z,100832.41
2022-09-30T00:33:17.521Z,100834.47
2022-09-30T00:35:47.458Z,100829.16
2022-09-30T00:38:17.513Z,100829.16
2022-09-30T00:40:47.987Z,100839.75
2022-09-30T00:43:41.943Z,100833.22
2022-09-30T00:46:26.661Z,100821.47
2022-09-30T00:48:59.444Z,100834.84
2022-09-30T00:51:38.326Z,100832.88
2022-09-30T00:54:16.021Z,100828.34
2022-09-30T00:56:52.139Z,100834.88
2022-09-30T00:59:33.764Z,100843.84
2022-09-30T01:02:04.566Z,100840.19
2022-09-30T01:04:37.539Z,100844.69
2022-09-30T01:07:10.737Z,100839.81
2022-09-30T01:09:45.328Z,100849.56
2022-09-30T01:12:19.166Z,100842.69
2022-09-30T01:14:55.191Z,100840.66
2022-09-30T01:17:39.517Z,100840.28
2022-09-30T01:21:07.551Z,100841.91
2022-09-30T01:24:21.767Z,100850.47
2022-09-30T01:27:34.909Z,100846.81
2022-09-30T01:30:29.652Z,100846.44
2022-09-30T01:33:24.265Z,100855.38
2022-09-30T01:36:23.860Z,100860.66
2022-09-30T01:39:06.139Z,100876.50
2022-09-30T01:41:46.649Z,100862.28
2022-09-30T01:44:27.617Z,100867.56
2022-09-30T01:47:07.362Z,100872.44
2022-09-30T01:49:49.653Z,100880.16
2022-09-30T01:52:26.319Z,100876.91
2022-09-30T01:55:04.315Z,100871.66
2022-09-30T01:57:52.721Z,100880.19
2022-09-30T02:00:23.571Z,100883.44
2022-09-30T02:03:01.041Z,100881.41
2022-09-30T02:05:43.769Z,100884.25
2022-09-30T02:08:22.683Z,100888.75
2022-09-30T02:11:01.212Z,100879.38
2022-09-30T02:13:39.507Z,100893.59
2022-09-30T02:16:16.782Z,100877.75
2022-09-30T02:18:50.816Z,100873.66
2022-09-30T02:21:29.789Z,100878.94
2022-09-30T02:24:07.224Z,100876.91
2022-09-30T02:26:44.049Z,100883.03
2022-09-30T02:29:21.400Z,100886.69
2022-09-30T02:31:56.954Z,100890.38
2022-09-30T02:34:33.213Z,100889.53
2022-09-30T02:37:11.674Z,100887.13
2022-09-30T02:39:49.557Z,100891.59
2022-09-30T02:42:27.211Z,100898.06
2022-09-30T02:45:04.474Z,100900.91
2022-09-30T02:47:54.991Z,100885.91
2022-09-30T02:50:33.780Z,100902.97
2022-09-30T02:53:24.518Z,100907.03
2022-09-30T02:56:22.354Z,100907.03
2022-09-30T02:58:56.579Z,100907.44
2022-09-30T03:01:28.472Z,100911.09
2022-09-30T03:04:03.394Z,100907.44
2022-09-30T03:06:34.580Z,100908.25
2022-09-30T03:09:09.303Z,100914.72
2022-09-30T03:11:39.328Z,100911.09
2022-09-30T03:14:43.477Z,100911.09
2022-09-30T03:17:42.176Z,100913.94
2022-09-30T03:20:41.819Z,100914.34
2022-09-30T03:23:45.313Z,100911.50
2022-09-30T03:26:37.370Z,100915.16
2022-09-30T03:29:24.158Z,100918.81
2022-09-30T03:32:11.527Z,100915.56
2022-09-30T03:35:04.250Z,100913.50
2022-09-30T03:37:47.432Z,100916.34
2022-09-30T03:40:31.304Z,100917.97
2022-09-30T03:43:12.542Z,100915.97
2022-09-30T03:45:50.219Z,100917.59
2022-09-30T03:48:23.634Z,100927.75
2022-09-30T03:50:55.689Z,100933.44
2022-09-30T03:53:29.010Z,100934.22
2022-09-30T03:55:59.530Z,100934.22
2022-09-30T03:58:32.010Z,100937.88
2022-09-30T04:01:02.217Z,100937.88
2022-09-30T04:03:32.273Z,100935.84
2022-09-30T04:06:02.510Z,100946.03
2022-09-30T04:08:33.983Z,100944.81
2022-09-30T04:11:04.190Z,100944.38
2022-09-30T04:13:36.494Z,100939.09
2022-09-30T04:16:07.559Z,100940.31
2022-09-30T04:18:39.246Z,100950.47
2022-09-30T04:21:11.140Z,100948.88
2022-09-30T04:23:43.919Z,100939.09
2022-09-30T04:26:17.369Z,100943.59
2022-09-30T04:28:49.803Z,100941.94
2022-09-30T04:31:21.775Z,100941.56
2022-09-30T04:33:51.866Z,100950.47
2022-09-30T04:36:22.287Z,100949.66
2022-09-30T04:38:53.789Z,100953.72
2022-09-30T04:41:24.291Z,100949.25
2022-09-30T04:43:57.261Z,100952.94
2022-09-30T04:46:27.571Z,100951.28
2022-09-30T04:48:58.353Z,100956.56
2022-09-30T04:51:30.031Z,100956.16
2022-09-30T04:54:01.150Z,100958.59
2022-09-30T04:56:31.936Z,100963.88
2022-09-30T04:59:03.955Z,100966.69
2022-09-30T05:01:33.983Z,100961.03
2022-09-30T05:04:06.200Z,100957.31
2022-09-30T05:06:36.860Z,100950.41
2022-09-30T05:09:06.603Z,100953.63
2022-09-30T05:11:41.144Z,100957.66
2022-09-30T05:14:13.638Z,100959.25
2022-09-30T05:16:44.105Z,100964.53
2022-09-30T05:19:14.494Z,100960.03
2022-09-30T05:21:45.430Z,100962.84
2022-09-30T05:24:16.279Z,100964.47
2022-09-30T05:26:46.437Z,100969.31
2022-09-30T05:29:19.945Z,100971.34
2022-09-30T05:31:50.529Z,100973.75
2022-09-30T05:34:21.912Z,100970.50
2022-09-30T05:36:51.720Z,100972.13
2022-09-30T05:39:22.366Z,100976.59
2022-09-30T05:41:53.051Z,100974.53
2022-09-30T05:44:25.328Z,100976.13
2022-09-30T05:46:55.419Z,100978.16
2022-09-30T05:49:26.945Z,100985.88
2022-09-30T05:51:57.388Z,100987.88
2022-09-30T05:54:28.040Z,100987.88
2022-09-30T05:56:58.090Z,100983.81
2022-09-30T05:59:30.737Z,100987.06
2022-09-30T06:02:01.288Z,100996.03
2022-09-30T06:04:31.211Z,100993.56
2022-09-30T06:07:01.495Z,100999.63
2022-09-30T06:09:31.812Z,100994.75
2022-09-30T06:12:01.937Z,101002.03
2022-09-30T06:14:33.942Z,100999.97
2022-09-30T06:17:06.007Z,101001.13
2022-09-30T06:19:36.484Z,100994.53
2022-09-30T06:22:07.341Z,100993.63
2022-09-30T06:24:38.100Z,100993.56
2022-09-30T06:27:08.523Z,101002.00
2022-09-30T06:29:41.200Z,100997.44
2022-09-30T06:32:11.539Z,101000.63
2022-09-30T06:34:41.718Z,101002.13
2022-09-30T06:37:12.174Z,100997.94
2022-09-30T06:39:43.309Z,101000.66
2022-09-30T06:42:13.837Z,101003.41
2022-09-30T06:44:52.740Z,101000.44
2022-09-30T06:47:25.880Z,100990.94
2022-09-30T06:49:59.306Z,100992.44
2022-09-30T06:52:30.671Z,100993.56
2022-09-30T06:55:01.051Z,101002.50
2022-09-30T06:57:31.784Z,100986.44
2022-09-30T07:00:04.599Z,100989.16
2022-09-30T07:02:35.518Z,100987.03
2022-09-30T07:05:05.786Z,100987.75
2022-09-30T07:07:37.280Z,100990.09
2022-09-30T07:10:09.223Z,100990.03
2022-09-30T07:12:39.454Z,100983.38
2022-09-30T07:15:13.958Z,100982.03
2022-09-30T07:17:44.612Z,100988.88
2022-09-30T07:20:15.152Z,100984.25
2022-09-30T07:22:45.839Z,100986.59
2022-09-30T07:25:17.807Z,100984.84
2022-09-30T07:27:48.461Z,100987.19
2022-09-30T07:30:27.098Z,100987.50
2022-09-30T07:32:57.956Z,100983.31
2022-09-30T07:35:28.698Z,100979.97
2022-09-30T07:38:01.996Z,100978.19
2022-09-30T07:40:32.830Z,100975.66
2022-09-30T07:43:03.650Z,100974.72
2022-09-30T07:45:36.816Z,100981.97
2022-09-30T07:48:27.936Z,100980.25
2022-09-30T07:50:58.920Z,100976.06
2022-09-30T07:53:29.428Z,100975.94
2022-09-30T07:56:00.056Z,100991.81
2022-09-30T07:58:30.447Z,100990.50
2022-09-30T08:01:02.737Z,100990.78
2022-09-30T08:03:33.201Z,100984.53
2022-09-30T08:06:09.424Z,100986.06
2022-09-30T08:08:42.025Z,100993.78
2022-09-30T08:11:12.755Z,100988.06
2022-09-30T08:13:43.703Z,100990.03
2022-09-30T08:16:16.110Z,100989.22
2022-09-30T08:18:46.800Z,100989.59
2022-09-30T08:21:16.952Z,100994.91
2022-09-30T08:23:47.034Z,100992.88
2022-09-30T08:26:18.004Z,100986.69
2022-09-30T08:28:49.254Z,100988.31
2022-09-30T08:31:24.873Z,100994.03
2022-09-30T08:33:56.404Z,100996.53
2022-09-30T08:36:29.550Z,100999.41
2022-09-30T08:39:00.449Z,101002.25
2022-09-30T08:42:09.266Z,100991.63
2022-09-30T08:44:55.471Z,100990.78
2022-09-30T08:47:53.098Z,100993.22
2022-09-30T08:50:36.390Z,100991.63
2022-09-30T08:53:18.620Z,100992.41
2022-09-30T08:55:49.940Z,100986.31
2022-09-30T08:58:29.886Z,100985.50
2022-09-30T09:01:09.128Z,100984.69
2022-09-30T09:03:40.975Z,100979.84
2022-09-30T09:06:32.494Z,100979.84
2022-09-30T09:09:51.391Z,100981.09
2022-09-30T09:12:39.139Z,100985.19
2022-09-30T09:15:37.767Z,100979.88
2022-09-30T09:18:52.660Z,100979.53
2022-09-30T09:21:42.491Z,100974.22
2022-09-30T09:24:20.686Z,100978.78
2022-09-30T09:26:54.198Z,100971.00
2022-09-30T09:29:41.194Z,100966.00
2022-09-30T09:32:18.162Z,100966.84
2022-09-30T09:34:55.562Z,100970.03
2022-09-30T09:37:59.422Z,100964.31
2022-09-30T09:40:42.369Z,100958.16
2022-09-30T09:43:29.453Z,100958.50
2022-09-30T09:46:18.166Z,100952.75
2022-09-30T09:48:58.315Z,100942.63
2022-09-30T09:51:38.444Z,100946.78
2022-09-30T09:54:14.892Z,100942.19
2022-09-30T09:56:45.507Z,100943.44
2022-09-30T09:59:20.135Z,100944.25
2022-09-30T10:01:54.335Z,100934.09
2022-09-30T10:04:28.453Z,100933.81
2022-09-30T10:07:01.969Z,100943.75
2022-09-30T10:09:37.801Z,100923.75
2022-09-30T10:12:31.335Z,100930.75
2022-09-30T10:15:14.133Z,100919.34
2022-09-30T10:17:45.233Z,100930.81
2022-09-30T10:20:29.071Z,100929.56
2022-09-30T10:23:20.490Z,100928.41
2022-09-30T10:26:09.010Z,100923.56
2022-09-30T10:28:50.843Z,100919.16
2022-09-30T10:31:28.949Z,100916.72
2022-09-30T10:34:05.721Z,100903.28
2022-09-30T10:36:38.905Z,100899.63
2022-09-30T10:39:19.333Z,100899.16
2022-09-30T10:41:53.314Z,100897.94
2022-09-30T10:44:26.806Z,100901.59
2022-09-30T10:47:04.989Z,100897.09
2022-09-30T10:49:48.578Z,100904.91
2022-09-30T10:52:28.822Z,100899.97
2022-09-30T10:55:07.775Z,100897.94
2022-09-30T10:57:43.562Z,100891.75
2022-09-30T11:00:24.683Z,100888.81
2022-09-30T11:03:03.319Z,100894.09
2022-09-30T11:05:38.379Z,100897.41
2022-09-30T11:08:21.334Z,100891.75
2022-09-30T11:11:05.833Z,100891.03
2022-09-30T11:13:51.641Z,100883.69
2022-09-30T11:16:33.468Z,100880.38
2022-09-30T11:19:14.050Z,100882.00
2022-09-30T11:22:01.774Z,100878.28
2022-09-30T11:24:42.737Z,100887.34
2022-09-30T11:27:30.991Z,100882.50
2022-09-30T11:30:16.160Z,100877.97
2022-09-30T11:33:15.467Z,100877.19
2022-09-30T11:36:03.869Z,100880.84
2022-09-30T11:39:05.168Z,100878.06
2022-09-30T11:41:42.420Z,100884.31
2022-09-30T11:44:35.917Z,100860.22
2022-09-30T11:47:44.232Z,100878.28
2022-09-30T11:50:56.670Z,100873.81
2022-09-30T11:53:55.413Z,100875.88
2022-09-30T11:56:47.901Z,100882.03
2022-09-30T11:59:29.202Z,100879.97
2022-09-30T12:02:07.014Z,100881.66
2022-09-30T12:04:48.685Z,100882.09
2022-09-30T12:07:29.027Z,100887.91
2022-09-30T12:10:10.234Z,100883.03
2022-09-30T12:12:42.981Z,100882.66
2022-09-30T12:15:26.455Z,100887.97
2022-09-30T12:18:05.986Z,100883.50
2022-09-30T12:20:49.210Z,100887.59
2022-09-30T12:23:30.065Z,100886.06
2022-09-30T12:26:02.785Z,100881.66
2022-09-30T12:28:57.100Z,100881.28
2022-09-30T12:32:09.888Z,100882.97
2022-09-30T12:35:02.559Z,100884.25
2022-09-30T12:37:54.432Z,100881.81
2022-09-30T12:40:50.196Z,100882.31
2022-09-30T12:44:09.010Z,100888.53
2022-09-30T12:47:05.977Z,100884.94
2022-09-30T12:49:39.713Z,100888.28
2022-09-30T12:52:16.923Z,100893.22
2022-09-30T12:54:55.730Z,100888.34
2022-09-30T12:57:30.825Z,100891.75
2022-09-30T13:00:08.625Z,100896.28
2022-09-30T13:02:42.866Z,100897.53
2022-09-30T13:05:54.946Z,100897.56
2022-09-30T13:09:07.494Z,100900.13
2022-09-30T13:12:21.162Z,100892.00
2022-09-30T13:14:51.625Z,100890.38
2022-09-30T13:17:31.704Z,100902.66
2022-09-30T13:20:01.796Z,100899.81
2022-09-30T13:23:02.158Z,100904.38
2022-09-30T13:25:58.991Z,100902.00
2022-09-30T13:28:39.292Z,100897.94
2022-09-30T13:31:19.540Z,100897.22
2022-09-30T13:34:11.698Z,100897.66
2022-09-30T13:36:58.929Z,100900.13
2022-09-30T13:39:32.348Z,100905.84
2022-09-30T13:42:20.001Z,100896.44
2022-09-30T13:45:07.031Z,100898.13
2022-09-30T13:47:45.769Z,100899.38
2022-09-30T13:50:25.998Z,100899.38
2022-09-30T13:53:02.953Z,100891.63
2022-09-30T13:55:45.730Z,100901.00
2022-09-30T13:58:44.446Z,100897.75
2022-09-30T14:01:43.142Z,100900.66
2022-09-30T14:05:16.228Z,100892.22
2022-09-30T14:08:17.210Z,100895.47
2022-09-30T14:11:25.820Z,100904.13
2022-09-30T14:14:27.464Z,100900.06
2022-09-30T14:17:25.560Z,100900.50
2022-09-30T14:20:23.150Z,100895.63
2022-09-30T14:22:54.357Z,100902.13
2022-09-30T14:25:25.398Z,100909.13
2022-09-30T14:28:08.734Z,100909.13
2022-09-30T14:31:05.107Z,100913.63
2022-09-30T14:33:40.057Z,100914.84
2022-09-30T14:36:20.004Z,100915.69
2022-09-30T14:38:56.125Z,100913.28
2022-09-30T14:41:30.457Z,100923.88
2022-09-30T14:44:08.559Z,100918.97
2022-09-30T14:46:43.130Z,100919.38
2022-09-30T14:49:21.570Z,100913.28
2022-09-30T14:51:52.660Z,100921.50
2022-09-30T14:54:30.380Z,100917.81
2022-09-30T14:57:03.435Z,100927.63
2022-09-30T14:59:42.038Z,100919.13
2022-09-30T15:02:20.995Z,100925.28
2022-09-30T15:05:01.743Z,100926.13
2022-09-30T15:07:32.921Z,100936.34
2022-09-30T15:10:06.356Z,100926.97
2022-09-30T15:12:39.433Z,100927.78
2022-09-30T15:15:36.953Z,100921.25
2022-09-30T15:18:31.698Z,100933.13
2022-09-30T15:21:12.652Z,100937.66
2022-09-30T15:23:48.304Z,100936.44
2022-09-30T15:26:20.239Z,100934.00
2022-09-30T15:28:51.330Z,100938.53
2022-09-30T15:31:27.582Z,100940.56
2022-09-30T15:34:17.029Z,100938.97
2022-09-30T15:36:58.230Z,100942.69
2022-09-30T15:39:53.939Z,100953.72
2022-09-30T15:42:37.905Z,100950.91
2022-09-30T15:45:35.325Z,100961.13
2022-09-30T15:48:16.654Z,100960.28
2022-09-30T15:50:50.489Z,100962.75
2022-09-30T15:53:27.458Z,100966.44
2022-09-30T15:55:59.590Z,100967.66
2022-09-30T15:58:40.619Z,100965.59
2022-09-30T16:01:23.574Z,100965.25
2022-09-30T16:03:57.875Z,100975.03
2022-09-30T16:06:33.045Z,100972.19
2022-09-30T16:09:09.421Z,100982.78
2022-09-30T16:11:44.832Z,100984.00
2022-09-30T16:14:28.662Z,100985.25
2022-09-30T16:17:02.886Z,100995.47
2022-09-30T16:19:34.673Z,100986.16
2022-09-30T16:22:05.574Z,100984.94
2022-09-30T16:24:50.798Z,100998.84
2022-09-30T16:27:30.697Z,100996.00
2022-09-30T16:30:02.773Z,100997.69
2022-09-30T16:32:42.067Z,100992.84
2022-09-30T16:35:23.091Z,100987.53
2022-09-30T16:38:02.398Z,100996.53
2022-09-30T16:40:38.312Z,101001.84
2022-09-30T16:43:11.289Z,100999.81
2022-09-30T16:45:43.040Z,101002.31
2022-09-30T16:48:18.254Z,101002.31
2022-09-30T16:50:53.838Z,101007.19
2022-09-30T16:53:24.609Z,101006.00
2022-09-30T16:55:57.065Z,101010.53
2022-09-30T16:58:27.682Z,101010.94
2022-09-30T17:01:00.755Z,101021.53
2022-09-30T17:03:31.480Z,101018.69
2022-09-30T17:06:04.149Z,101018.69
2022-09-30T17:08:34.189Z,101025.63
2022-09-30T17:11:07.095Z,101028.47
2022-09-30T17:13:37.860Z,101028.88
2022-09-30T17:16:08.974Z,101028.06
2022-09-30T17:18:40.064Z,101024.81
2022-09-30T17:21:11.614Z,101026.03
2022-09-30T17:23:42.024Z,101028.09
2022-09-30T17:26:15.704Z,101027.66
2022-09-30T17:28:47.041Z,101024.81
2022-09-30T17:31:18.212Z,101029.28
2022-09-30T17:33:48.237Z,101032.13
2022-09-30T17:36:19.572Z,101030.91
2022-09-30T17:38:49.736Z,101036.63
2022-09-30T17:41:38.356Z,101037.84
2022-09-30T17:44:08.748Z,101033.38
2022-09-30T17:46:47.785Z,101046.00
2022-09-30T17:49:24.009Z,101045.63
2022-09-30T17:51:54.228Z,101043.19
2022-09-30T17:54:24.670Z,101045.25
2022-09-30T17:56:58.143Z,101047.69
2022-09-30T17:59:29.421Z,101047.31
2022-09-30T18:01:59.768Z,101050.97
2022-09-30T18:04:32.240Z,101052.22
2022-09-30T18:07:03.444Z,101049.34
2022-09-30T18:09:37.596Z,101051.81
2022-09-30T18:12:09.920Z,101057.94
2022-09-30T18:14:41.121Z,101061.19
2022-09-30T18:17:13.630Z,101059.56
2022-09-30T18:19:44.445Z,101064.09
2022-09-30T18:22:14.468Z,101065.75
2022-09-30T18:25:01.247Z,101060.47
2022-09-30T18:27:34.520Z,101069.44
2022-09-30T18:30:06.200Z,101070.69
2022-09-30T18:32:37.922Z,101063.78
2022-09-30T18:35:12.630Z,101071.09
2022-09-30T18:37:47.488Z,101067.06
2022-09-30T18:40:23.071Z,101065.44
2022-09-30T18:43:03.070Z,101062.16
2022-09-30T18:45:38.677Z,101067.06
2022-09-30T18:48:13.331Z,101062.56
2022-09-30T18:50:45.039Z,101062.56
2022-09-30T18:53:16.561Z,101059.72
2022-09-30T18:55:47.527Z,101068.28
2022-09-30T18:58:19.421Z,101057.66
2022-09-30T19:00:50.033Z,101063.81
2022-09-30T19:03:20.738Z,101060.94
2022-09-30T19:05:51.204Z,101066.66
2022-09-30T19:08:22.888Z,101062.19
2022-09-30T19:10:55.806Z,101069.91
2022-09-30T19:13:29.226Z,101070.72
2022-09-30T19:16:06.772Z,101074.38
2022-09-30T19:18:39.617Z,101068.31
2022-09-30T19:21:17.010Z,101065.47
2022-09-30T19:23:49.379Z,101074.41
2022-09-30T19:26:23.501Z,101070.34
2022-09-30T19:29:02.767Z,101071.16
2022-09-30T19:31:34.625Z,101074.81
2022-09-30T19:34:30.832Z,101079.72
2022-09-30T19:37:12.389Z,101080.94
2022-09-30T19:39:49.649Z,101077.66
2022-09-30T19:42:21.746Z,101080.50
2022-09-30T19:45:04.077Z,101082.94
2022-09-30T19:47:36.828Z,101081.31
2022-09-30T19:50:09.638Z,101084.16
2022-09-30T19:52:53.292Z,101085.00
2022-09-30T19:55:26.958Z,101083.38
2022-09-30T19:57:59.275Z,101084.16
2022-09-30T20:00:34.350Z,101084.16
2022-09-30T20:03:18.655Z,101089.06
2022-09-30T20:05:49.788Z,101083.78
2022-09-30T20:08:21.460Z,101081.75
2022-09-30T20:10:53.970Z,101080.94
2022-09-30T20:13:24.347Z,101084.59
2022-09-30T20:15:57.632Z,101085.41
2022-09-30T20:18:28.314Z,101084.59
2022-09-30T20:20:59.161Z,101087.44
2022-09-30T20:23:35.164Z,101086.22
2022-09-30T20:26:06.531Z,101087.44
2022-09-30T20:28:43.046Z,101083.78
2022-09-30T20:31:17.979Z,101076.47
2022-09-30T20:33:49.952Z,101073.63
2022-09-30T20:36:20.353Z,101080.13
2022-09-30T20:38:54.168Z,101080.94
2022-09-30T20:41:29.506Z,101085.03
2022-09-30T20:44:04.927Z,101080.94
2022-09-30T20:46:42.116Z,101074.41
2022-09-30T20:49:16.465Z,101076.47
2022-09-30T20:51:48.078Z,101077.69
2022-09-30T20:54:18.760Z,101079.31
2022-09-30T20:57:06.905Z,101080.53
2022-09-30T20:59:38.545Z,101077.69
2022-09-30T21:02:15.435Z,101069.13
2022-09-30T21:04:49.509Z,101075.63
2022-09-30T21:07:21.979Z,101064.66
2022-09-30T21:09:54.255Z,101064.66
2022-09-30T21:12:26.403Z,101062.59
2022-09-30T21:14:57.649Z,101066.28
2022-09-30T21:17:32.790Z,101056.91
2022-09-30T21:20:02.756Z,101067.50
2022-09-30T21:22:34.098Z,101070.34
2022-09-30T21:25:04.295Z,101058.13
2022-09-30T21:27:34.713Z,101059.38
2022-09-30T21:30:06.592Z,101062.22
2022-09-30T21:32:41.322Z,101056.53
2022-09-30T21:35:14.170Z,101059.78
2022-09-30T21:37:45.104Z,101059.78
2022-09-30T21:40:15.563Z,101056.13
2022-09-30T21:42:45.792Z,101061.00
2022-09-30T21:45:15.519Z,101053.69
2022-09-30T21:47:47.815Z,101059.38
2022-09-30T21:50:18.454Z,101057.75
2022-09-30T21:52:49.708Z,101054.91
2022-09-30T21:55:19.939Z,101055.69
2022-09-30T21:57:50.274Z,101056.53
2022-09-30T22:00:21.269Z,101058.56
2022-09-30T22:02:53.996Z,101055.28
2022-09-30T22:05:24.046Z,101054.50
2022-09-30T22:07:54.475Z,101056.53
2022-09-30T22:10:24.718Z,101056.53
2022-09-30T22:12:55.123Z,101050.81
2022-09-30T22:15:25.624Z,101053.66
2022-09-30T22:17:58.081Z,101057.34
2022-09-30T22:20:28.708Z,101056.13
2022-09-30T22:22:59.082Z,101055.31
2022-09-30T22:25:31.025Z,101058.19
2022-09-30T22:28:00.941Z,101058.59
2022-09-30T22:30:31.345Z,101047.19
2022-09-30T22:33:19.931Z,101050.84
2022-09-30T22:36:06.417Z,101042.31
2022-09-30T22:38:36.691Z,101043.53
2022-09-30T22:41:06.716Z,101046.41
2022-09-30T22:43:37.389Z,101037.84
2022-09-30T22:46:10.244Z,101039.91
2022-09-30T22:48:44.750Z,101039.06
2022-09-30T22:51:18.646Z,101036.22
2022-09-30T22:54:13.255Z,101036.66
2022-09-30T22:56:43.668Z,101033.41
2022-09-30T22:59:14.024Z,101039.09
2022-09-30T23:01:44.407Z,101041.16
2022-09-30T23:04:17.849Z,101041.16
2022-09-30T23:06:51.056Z,101040.31
2022-09-30T23:09:23.009Z,101046.03
2022-09-30T23:11:55.751Z,101039.53
2022-09-30T23:14:26.805Z,101037.91
2022-09-30T23:16:56.897Z,101050.53
2022-09-30T23:19:29.413Z,101043.19
2022-09-30T23:21:59.716Z,101046.47
2022-09-30T23:24:31.971Z,101048.91
2022-09-30T23:27:03.847Z,101050.94
2022-09-30T23:29:33.810Z,101053.41
2022-09-30T23:32:04.555Z,101048.94
2022-09-30T23:34:36.253Z,101050.16
2022-09-30T23:37:06.713Z,101044.88
2022-09-30T23:39:36.758Z,101041.66
2022-09-30T23:42:07.224Z,101046.50
2022-09-30T23:44:37.121Z,101050.22
2022-09-30T23:47:22.653Z,101049.81
2022-09-30T23:49:55.759Z,101045.72
2022-09-30T23:52:25.947Z,101038.84
2022-09-30T23:54:56.687Z,101038.84
2022-09-30T23:57:26.774Z,101042.13
2022-09-30T23:59:57.240Z,101034.81
